Latest Coastal Weather Observations for Bairnsdale

IDV60701

Issued at 5:31 pm EST Friday 28 August 2015 (issued every 10 minutes, with the page automatically refreshed every 10 minutes)

About coastal observations | Map of coastal stations | Coastal observations for VIC | Marine services | Other Formats
Station Details ID: 085279 Name: BAIRNSDALE AIRPORT Lat: -37.88 Lon: 147.57 Height: 49.4 m
Data from the previous 72 hours. | See also: Recent months at Bairnsdale
Date/Time
EST
Temp

°C
Wind Pressure Rain
since 9am
mm
Weather Cloud Vis
km
Sea
Height
m
Swell
Dir
 
Speed
knots
Gust
knots
hPa Trend Height
m
Period
s
Dir
28/05:30pm 9.0 SW 3 5 1023.5 - 6.6 - Partly cloudy 10 - - - -
28/05:00pm 9.2 WSW 6 7 1023.5 - 6.0 - Partly cloudy 10 - - - -
28/04:30pm 9.3 S 5 7 1023.1 - 6.0 - Partly cloudy 10 - - - -
28/04:02pm 9.2 SSW 5 7 1023.0 - 6.0 - Partly cloudy 10 - - - -
28/04:00pm 9.1 SSW 5 7 1023.0 - 6.0 - Partly cloudy 10 - - - -
28/03:34pm 9.3 S 9 11 1023.2 - 4.6 - Partly cloudy 5 - - - -
28/03:30pm 9.4 S 9 11 1023.1 - 4.4 - Partly cloudy 7 - - - -
28/03:09pm 9.5 S 8 10 1023.0 - 4.0 - Partly cloudy 10 - - - -
28/03:00pm 9.7 S 9 12 1022.9 - 3.6 Rain Cloudy 8 - - - -
28/02:54pm 9.9 S 8 12 1022.9 - 3.4 - Partly cloudy 10 - - - -
28/02:30pm 10.3 SSW 8 10 1022.8 - 3.4 - Partly cloudy 10 - - - -
28/02:29pm 10.5 SSW 8 10 1022.8 - 3.4 - Partly cloudy 10 - - - -
28/02:00pm 10.3 SW 8 11 1022.7 - 3.2 - Partly cloudy 10 - - - -
28/01:49pm 10.4 SW 8 9 1022.7 - 3.2 - Partly cloudy 10 - - - -
28/01:30pm 10.0 SW 7 10 1022.8 - 2.6 - Partly cloudy 6 - - - -
28/01:04pm 10.0 WSW 6 8 1023.1 - 1.8 - Partly cloudy 4 - - - -
28/01:03pm 9.9 WSW 6 9 1023.1 - 1.8 - Partly cloudy 4 - - - -
28/01:00pm 9.9 WSW 7 9 1023.1 - 1.8 - Partly cloudy 4 - - - -
28/12:56pm 9.9 WSW 8 10 1023.1 - 1.6 - Partly cloudy 5 - - - -
28/12:54pm 9.8 WSW 8 10 1023.2 - 1.6 - Partly cloudy 6 - - - -
28/12:30pm 9.8 WSW 8 10 1023.3 - 1.4 - Cloudy 5 - - - -
28/12:00pm 10.0 WSW 10 12 1023.6 - 1.2 Rain Cloudy 4 - - - -
28/11:30am 9.9 WSW 8 10 1023.9 - 0.4 - Partly cloudy 4 - - - -
28/11:23am 9.9 WSW 8 10 1023.9 - 0.4 - Partly cloudy 3 - - - -
28/11:08am 10.3 WSW 11 14 1023.9 - 0.0 - Cloudy 5 - - - -
28/11:00am 10.5 WSW 12 15 1023.9 - 0.0 - Cloudy 10 - - - -
28/10:30am 10.5 WSW 13 17 1023.7 - 0.0 - Partly cloudy 10 - - - -
28/10:00am 10.8 WSW 13 19 1023.5 - 0.0 - Partly cloudy 10 - - - -
28/09:30am 10.1 WSW 14 18 1023.3 - 0.0 - Partly cloudy 10 - - - -
28/09:00am 9.9 WSW 13 17 1023.3 - 19.4 - Mostly cloudy 10 - - - -
28/08:30am 9.5 W 13 20 1023.3 - 19.4 - Partly cloudy 10 - - - -
28/08:00am 9.2 WSW 13 18 1023.0 - 19.4 - Cloudy 10 - - - -
28/07:30am 9.0 W 14 21 1022.8 - 19.4 - Cloudy 10 - - - -
28/07:00am 9.0 W 13 19 1022.4 - 19.4 - Partly cloudy 10 - - - -
28/06:30am 9.1 W 14 21 1022.2 - 19.4 - Cloudy 10 - - - -
28/06:00am 9.3 WSW 15 19 1021.7 - 19.4 - Mostly cloudy 10 - - - -
28/05:30am 9.3 WSW 14 19 1021.3 - 19.4 - Cloudy 10 - - - -
28/05:00am 9.6 W 14 19 1021.0 - 19.4 - Partly cloudy 10 - - - -
28/04:30am 9.6 WSW 14 19 1020.6 - 19.4 - Cloudy 10 - - - -
28/04:00am 9.7 WSW 13 19 1020.5 - 19.4 - Partly cloudy 10 - - - -
28/03:47am 9.7 WSW 13 18 1020.3 - 19.4 - Partly cloudy 10 - - - -
28/03:32am 9.6 WSW 13 18 1020.2 - 19.4 - Partly cloudy 10 - - - -
28/03:30am 9.6 WSW 13 18 1020.2 - 19.4 - Partly cloudy 10 - - - -
28/03:00am 9.6 WSW 13 16 1020.1 - 19.2 - Cloudy 4 - - - -
28/02:30am 9.6 WSW 12 16 1020.1 - 19.2 - Cloudy 6 - - - -
28/02:12am 9.7 WSW 13 19 1020.2 - 19.2 - Cloudy 5 - - - -
28/02:00am 9.7 WSW 13 17 1020.1 - 19.2 - Cloudy 10 - - - -
28/01:53am 9.6 WSW 13 17 1020.1 - 19.2 - Cloudy 10 - - - -
28/01:32am 9.7 WSW 13 18 1020.2 - 19.2 - Cloudy 5 - - - -
28/01:30am 9.6 WSW 13 18 1020.1 - 19.2 - Cloudy 6 - - - -
28/01:27am 9.7 WSW 13 18 1020.2 - 19.2 - Cloudy 6 - - - -
28/01:00am 10.0 SW 13 17 1020.0 - 19.0 - Cloudy 6 - - - -
28/12:56am 10.0 SW 14 19 1020.0 - 19.0 - Cloudy 5 - - - -
28/12:43am 10.1 SW 14 20 1019.9 - 19.0 - Partly cloudy 10 - - - -
28/12:30am 10.2 SW 14 19 1019.8 - 19.0 - Partly cloudy 4 - - - -
28/12:23am 10.3 SW 15 19 1019.7 - 19.0 - Cloudy 5 - - - -
28/12:00am 10.6 SW 15 21 1019.6 - 18.6 Recent precip. Cloudy 8 - - - -
 
Date/Time
EST
Temp

°C
Wind Pressure Rain
since 9am
mm
Weather Cloud Vis
km
Sea
Height
m
Swell
Dir
 
Speed
knots
Gust
knots
hPa Trend Height
m
Period
s
Dir
27/11:30pm 10.5 SSW 13 18 1019.6 - 18.6 - Partly cloudy 6 - - - -
27/11:00pm 10.1 W 7 9 1019.8 - 18.0 - Cloudy 10 - - - -
27/10:37pm 9.7 W 7 8 1019.8 - 17.8 - Partly cloudy 6 - - - -
27/10:30pm 9.6 WNW 6 7 1019.8 - 17.6 - Partly cloudy 7 - - - -
27/10:29pm 9.6 WNW 6 8 1019.8 - 17.4 - Partly cloudy 7 - - - -
27/10:16pm 9.6 WNW 6 7 1019.8 - 17.0 - Partly cloudy 5 - - - -
27/10:00pm 9.5 WNW 6 7 1019.8 - 16.2 - Partly cloudy 10 - - - -
27/09:36pm 9.6 W 5 6 1019.9 - 16.0 - Partly cloudy 10 - - - -
27/09:30pm 9.5 W 5 6 1019.9 - 15.8 - Partly cloudy 10 - - - -
27/09:07pm 9.5 WNW 5 6 1019.9 - 15.4 - Cloudy 10 - - - -
27/09:00pm 9.5 WNW 6 7 1019.8 - 15.4 - Mostly cloudy 10 - - - -
27/08:30pm 9.5 W 7 10 1019.6 - 15.4 - Partly cloudy 10 - - - -
27/08:00pm 9.5 W 9 12 1019.3 - 15.4 - Partly cloudy 10 - - - -
27/07:30pm 9.6 W 9 12 1019.2 - 15.4 - Partly cloudy 10 - - - -
27/07:00pm 9.5 W 9 13 1018.9 - 15.4 - Partly cloudy 10 - - - -
27/06:30pm 9.6 W 9 13 1018.6 - 15.4 - Partly cloudy 10 - - - -
27/06:00pm 9.7 WSW 8 13 1018.4 - 15.4 - Mostly cloudy 10 - - - -
27/05:30pm 9.7 WSW 9 12 1018.2 - 15.4 - Partly cloudy 10 - - - -
27/05:24pm 9.7 WSW 10 15 1018.2 - 15.4 - Partly cloudy 10 - - - -
27/05:00pm 10.1 WSW 9 12 1018.1 - 15.4 - Partly cloudy 10 - - - -
27/04:30pm 10.6 WSW 7 9 1017.9 - 15.4 - Cloudy 10 - - - -
27/04:14pm 10.6 WSW 7 11 1017.9 - 15.4 - Partly cloudy 10 - - - -
27/04:00pm 10.7 WSW 7 9 1017.9 - 15.4 - Cloudy 10 - - - -
27/03:30pm 10.7 W 10 15 1017.7 - 15.4 - Partly cloudy 10 - - - -
27/03:00pm 11.0 W 9 13 1017.7 - 15.4 - - 10 - - - -
27/02:30pm 10.3 W 11 14 1017.3 - 15.4 - - 10 - - - -
27/02:00pm 10.1 W 13 18 1017.4 - 15.4 - Partly cloudy 10 - - - -
27/01:30pm 9.8 W 12 17 1017.9 - 15.4 - Partly cloudy 10 - - - -
27/01:00pm 9.8 WSW 12 17 1018.1 - 15.4 - Partly cloudy 10 - - - -
27/12:30pm 10.2 WSW 10 15 1018.3 - 15.4 - Partly cloudy 10 - - - -
27/12:18pm 10.2 WSW 10 14 1018.3 - 15.2 - Partly cloudy 10 - - - -
27/12:00pm 10.2 W 9 12 1018.8 - 14.0 Rain Cloudy 4 - - - -
27/11:30am 10.1 WNW 7 9 1019.7 - 10.0 - Partly cloudy 5 - - - -
27/11:24am 10.1 WNW 7 9 1019.7 - 9.2 - Partly cloudy 5 - - - -
27/11:20am 10.1 WNW 7 10 1019.7 - 8.6 - Partly cloudy 6 - - - -
27/11:00am 10.0 NW 7 10 1019.6 - 7.2 - Partly cloudy 8 - - - -
27/10:53am 10.0 NW 7 10 1019.6 - 6.8 - Partly cloudy 7 - - - -
27/10:40am 10.0 NW 7 9 1019.6 - 6.0 - Partly cloudy 9 - - - -
27/10:30am 9.9 NW 7 9 1019.6 - 5.6 - Partly cloudy 5 - - - -
27/10:23am 9.8 NW 7 9 1019.6 - 5.2 - Partly cloudy 5 - - - -
27/10:19am 9.8 NW 6 8 1019.6 - 4.6 - Partly cloudy 8 - - - -
27/10:09am 9.7 NW 6 9 1019.7 - 4.4 - Partly cloudy 9 - - - -
27/10:04am 9.7 NW 7 9 1019.7 - 4.2 - Partly cloudy 8 - - - -
27/10:01am 9.6 NW 7 9 1019.7 - 4.2 - Partly cloudy 8 - - - -
27/10:00am 9.6 NW 7 9 1019.7 - 4.2 - Partly cloudy 8 - - - -
27/09:30am 9.6 NNW 7 8 1020.1 - 2.4 - Partly cloudy 4 - - - -
27/09:25am 9.6 NW 6 8 1020.2 - 2.0 - Partly cloudy 5 - - - -
27/09:21am 9.6 NW 6 7 1020.2 - 1.8 - Partly cloudy 5 - - - -
27/09:00am 9.5 NW 5 6 1020.3 - 2.4 Rain Cloudy 4 - - - -
27/08:54am 9.5 NW 5 6 1020.3 - 2.2 - Partly cloudy 5 - - - -
27/08:30am 9.5 NW 5 6 1020.4 - 2.0 - Cloudy 9 - - - -
27/08:21am 9.4 NW 5 6 1020.4 - 2.0 - Cloudy 9 - - - -
27/08:00am 9.4 WSW 1 3 1020.4 - 2.0 - Cloudy 3 - - - -
27/07:30am 9.1 WSW 3 4 1020.1 - 2.0 - Cloudy 2 - - - -
27/07:19am 9.1 WSW 3 4 1020.1 - 2.0 - Cloudy 5 - - - -
27/07:14am 9.0 W 3 4 1020.1 - 2.0 - Cloudy 6 - - - -
27/07:00am 9.2 NW 4 5 1020.2 - 2.0 - Cloudy 2 - - - -
27/06:30am 9.1 WNW 4 6 1020.1 - 2.0 - Cloudy 0.3 - - - -
27/06:00am 9.1 WNW 3 5 1020.0 - 2.0 - Cloudy 0.2 - - - -
27/05:30am 9.0 WNW 5 6 1020.1 - 2.0 - Partly cloudy 1 - - - -
27/05:00am 8.9 NW 5 6 1020.2 - 2.0 - Partly cloudy 0.6 - - - -
27/04:30am 8.7 WNW 3 5 1020.3 - 2.0 - Partly cloudy 0.2 - - - -
27/04:00am 8.9 WNW 3 3 1020.5 - 2.0 - Cloudy 0.1 - - - -
27/03:30am 9.2 WNW 4 5 1020.8 - 2.0 - Cloudy 0.2 - - - -
27/03:00am 9.2 WNW 5 6 1021.0 - 2.0 - Cloudy 0.1 - - - -
27/02:30am 8.9 NW 4 6 1021.4 - 2.0 - Cloudy 0.1 - - - -
27/02:04am 8.3 CALM 0 0 1021.6 - 2.0 - Partly cloudy 0.2 - - - -
27/02:00am 8.4 CALM 0 0 1021.6 - 2.0 - Partly cloudy 0.3 - - - -
27/01:30am 8.7 SE 4 4 1022.1 - 2.0 - Cloudy 0.3 - - - -
27/01:00am 7.9 SSE 3 4 1022.4 - 2.0 - Partly cloudy 0.2 - - - -
27/12:30am 10.0 CALM 0 0 1022.6 - 2.0 - Partly cloudy 7 - - - -
27/12:01am 9.8 CALM 0 0 1022.9 - 2.0 - Partly cloudy 5 - - - -
27/12:00am 9.9 CALM 0 0 1022.9 - 2.0 - Cloudy 7 - - - -
 
Date/Time
EST
Temp

°C
Wind Pressure Rain
since 9am
mm
Weather Cloud Vis
km
Sea
Height
m
Swell
Dir
 
Speed
knots
Gust
knots
hPa Trend Height
m
Period
s
Dir
26/11:30pm 10.3 CALM 0 0 1023.3 - 2.0 - Cloudy 10 - - - -
26/11:00pm 10.5 ESE 3 4 1023.7 - 2.0 - Partly cloudy 10 - - - -
26/10:30pm 10.5 ESE 5 5 1024.0 - 2.0 - Partly cloudy 10 - - - -
26/10:00pm 10.6 ESE 1 4 1024.4 - 1.8 - Partly cloudy 10 - - - -
26/09:30pm 10.8 CALM 0 0 1024.6 - 1.6 - Cloudy 10 - - - -
26/09:00pm 10.7 CALM 0 2 1024.6 - 1.4 Rain Cloudy 9 - - - -
26/08:30pm 10.9 NE 4 5 1024.6 - 0.8 - Cloudy 10 - - - -
26/08:00pm 11.1 E 5 6 1024.5 - 0.2 - Cloudy 10 - - - -
26/07:30pm 11.2 E 5 6 1024.6 - 0.0 - Partly cloudy 10 - - - -
26/07:00pm 11.3 ENE 5 6 1024.6 - 0.0 - Partly cloudy 10 - - - -
26/06:30pm 11.5 E 5 7 1024.5 - 0.0 - Partly cloudy 10 - - - -
26/06:00pm 11.9 E 7 9 1024.6 - 0.0 - Cloudy 10 - - - -
26/05:30pm 12.3 E 8 10 1024.5 - 0.0 - Partly cloudy 10 - - - -
26/05:00pm 12.7 E 9 12 1024.4 - 0.0 - Partly cloudy 10 - - - -
26/04:30pm 13.0 E 13 16 1024.2 - 0.0 - Cloudy 10 - - - -
26/04:00pm 13.2 E 11 14 1024.4 - 0.0 - Cloudy 10 - - - -
26/03:30pm 13.3 E 12 17 1024.4 - 0.0 - Partly cloudy 10 - - - -
26/03:00pm 13.7 E 12 15 1024.5 - 0.0 - Cloudy 10 - - - -
26/02:30pm 14.6 E 11 13 1024.7 - 0.0 - Partly cloudy 10 - - - -
26/02:00pm 14.3 E 10 13 1024.9 - 0.0 - Cloudy 10 - - - -
26/01:30pm 13.8 ENE 11 13 1025.4 - 0.0 - Cloudy 10 - - - -
26/01:00pm 14.3 E 12 17 1025.8 - 0.0 - Partly cloudy 10 - - - -
26/12:30pm 14.1 E 12 16 1026.3 - 0.0 - Partly cloudy 10 - - - -
26/12:00pm 14.8 E 10 14 1026.8 - 0.0 - Cloudy 10 - - - -
26/11:30am 13.7 ENE 7 11 1027.3 - 0.0 - Partly cloudy 10 - - - -
26/11:00am 12.7 ENE 6 9 1027.6 - 0.0 - Cloudy 10 - - - -
26/10:30am 12.3 ENE 5 7 1027.8 - 0.0 - Cloudy 10 - - - -
26/10:00am 12.1 ENE 3 5 1028.0 - 0.0 - Cloudy 10 - - - -
26/09:30am 10.9 NNW 1 4 1028.1 - 0.0 - Cloudy 10 - - - -
26/09:00am 10.0 NNW 4 5 1028.1 - 1.0 - Mostly clear 10 - - - -
26/08:30am 9.3 NNW 4 6 1028.1 - 1.0 - Partly cloudy 10 - - - -
26/08:00am 8.4 NNW 4 5 1027.9 - 1.0 - - 10 - - - -
26/07:46am 8.1 NW 3 4 1027.8 - 1.0 - - 10 - - - -
26/07:30am 7.6 NW 3 5 1027.9 - 1.0 - - 1 - - - -
26/07:08am 7.6 NNW 3 4 1027.7 - 1.0 - Partly cloudy 5 - - - -
26/07:00am 7.3 NW 3 5 1027.6 - 1.0 - Partly cloudy 10 - - - -
26/06:37am 7.5 NW 4 4 1027.5 - 1.0 - Partly cloudy 10 - - - -
26/06:30am 7.4 NNW 1 4 1027.5 - 1.0 - Partly cloudy 10 - - - -
26/06:00am 7.7 CALM 0 0 1027.6 - 1.0 Recent precip. Cloudy 2 - - - -
26/05:30am 6.8 CALM 0 0 1027.4 - 0.8 - Partly cloudy 0.4 - - - -
26/05:07am 8.0 CALM 0 0 1027.4 - 0.8 - Partly cloudy 4 - - - -
26/05:00am 8.1 CALM 0 0 1027.4 - 0.8 - Partly cloudy 9 - - - -
26/04:30am 9.0 CALM 0 0 1027.2 - 0.8 - Partly cloudy 10 - - - -
26/04:00am 9.0 NNE 3 4 1027.3 - 0.8 - Cloudy 10 - - - -
26/03:30am 9.0 NNE 5 5 1027.3 - 0.8 - Partly cloudy 9 - - - -
26/03:00am 9.5 ENE 6 8 1027.4 - 0.8 Rain Cloudy 10 - - - -
26/02:30am 9.6 ESE 7 15 1027.6 - 0.6 - Partly cloudy 8 - - - -
26/02:00am 8.9 CALM 0 0 1027.7 - 0.6 - Partly cloudy 10 - - - -
26/01:30am 9.2 ENE 4 5 1028.1 - 0.4 - Partly cloudy 10 - - - -
26/01:00am 8.7 NNW 4 6 1028.2 - 0.4 - Partly cloudy 9 - - - -
26/12:30am 9.0 NNE 7 14 1028.2 - 0.2 - Cloudy 10 - - - -
26/12:00am 9.4 N 3 4 1028.1 - 0.2 - Cloudy 10 - - - -
 
Date/Time
EST
Temp

°C
Wind Pressure Rain
since 9am
mm
Weather Cloud Vis
km
Sea
Height
m
Swell
Dir
 
Speed
knots
Gust
knots
hPa Trend Height
m
Period
s
Dir
25/11:30pm 9.7 CALM 0 1 1028.0 - 0.2 - Cloudy 10 - - - -
25/11:00pm 10.1 E 5 7 1028.1 - 0.2 - Cloudy 10 - - - -
25/10:30pm 10.9 ESE 6 10 1028.2 - 0.2 - Partly cloudy 10 - - - -
25/10:00pm 10.8 SE 7 9 1028.1 - 0.2 - Partly cloudy 10 - - - -
25/09:30pm 10.9 ESE 7 10 1028.1 - 0.2 - Partly cloudy 10 - - - -
25/09:00pm 10.3 ESE 6 7 1028.2 - 0.2 - Cloudy 10 - - - -
25/08:30pm 9.5 SE 6 7 1028.1 - 0.2 - Partly cloudy 10 - - - -
25/08:00pm 9.0 SE 6 7 1027.8 - 0.2 - Partly cloudy 10 - - - -
25/07:30pm 9.5 SE 6 7 1027.6 - 0.2 - Partly cloudy 10 - - - -
25/07:00pm 9.8 SE 6 7 1027.6 - 0.2 - Partly cloudy 10 - - - -
25/06:30pm 10.1 SE 6 7 1027.4 - 0.2 - Partly cloudy 10 - - - -
25/06:00pm 10.7 ESE 6 7 1027.1 - 0.2 - Cloudy 10 - - - -

Other Formats:

Comma delimited format used in spreadsheet applications
http://www.bom.gov.au/fwo/IDV60701/IDV60701.94912.axf

JavaScript Object Notation format (JSON) in row-major order
http://www.bom.gov.au/fwo/IDV60701/IDV60701.94912.json